Time;durP1;ratioP1;P1;durP2;ratioP2;P2;SDS_P1;SDS_P2;PMS_P1;PMS_P2;Temp;Humidity;BMP_temperature;BMP_pressure;BME280_temperature;BME280_humidity;BME280_pressure;Samples;Min_cycle;Max_cycle;Signal;HPM_P1;HPM_P2
2023/09/29 00:00:54;;;;;;;6.53;1.90;;;15.50;99.90;;;;;;4967592;28;20031;-60
2023/09/29 00:03:20;;;;;;;6.00;1.73;;;15.50;99.90;;;;;;4951549;28;20394;-60
2023/09/29 00:05:46;;;;;;;7.18;1.92;;;15.50;99.90;;;;;;4951564;28;20133;-60
2023/09/29 00:08:17;;;;;;;13.65;1.67;;;15.50;99.90;;;;;;4967371;28;20039;-60
2023/09/29 00:10:46;;;;;;;1.63;1.30;;;15.60;99.90;;;;;;4968980;28;20108;-60
2023/09/29 00:13:13;;;;;;;12.53;2.50;;;15.60;99.90;;;;;;4951774;28;20137;-60
2023/09/29 00:15:39;;;;;;;4.57;1.05;;;15.50;99.90;;;;;;4966820;28;20289;-60
2023/09/29 00:18:07;;;;;;;6.30;1.23;;;15.60;99.90;;;;;;4968980;28;20039;-60
2023/09/29 00:20:33;;;;;;;5.07;1.60;;;15.50;99.90;;;;;;4967479;28;20053;-60
2023/09/29 00:23:01;;;;;;;4.63;0.85;;;15.60;99.90;;;;;;4968174;28;20081;-60
2023/09/29 00:25:27;;;;;;;3.08;2.13;;;15.60;99.90;;;;;;4968688;28;20645;-60
2023/09/29 00:27:55;;;;;;;6.35;1.35;;;15.60;99.90;;;;;;4951330;28;20043;-60
2023/09/29 00:30:21;;;;;;;2.03;1.23;;;15.50;99.90;;;;;;4966990;28;20082;-60
2023/09/29 00:32:48;;;;;;;6.03;1.85;;;15.40;99.90;;;;;;5052017;28;20069;-60
2023/09/29 00:35:24;;;;;;;6.05;1.70;;;15.50;99.90;;;;;;4969001;28;20069;-60
2023/09/29 00:38:00;;;;;;;2.85;1.08;;;15.40;99.90;;;;;;4967066;28;20043;-60
2023/09/29 00:40:26;;;;;;;4.82;1.58;;;15.40;99.90;;;;;;4949722;28;20073;-60
2023/09/29 00:42:53;;;;;;;7.35;1.13;;;15.40;99.90;;;;;;4948262;29;20081;-60
2023/09/29 00:45:22;;;;;;;2.78;1.30;;;15.40;99.90;;;;;;4949152;29;20051;-60
2023/09/29 00:47:51;;;;;;;3.28;1.00;;;15.40;99.90;;;;;;4966318;28;20043;-60
2023/09/29 00:50:20;;;;;;;4.25;1.58;;;15.40;99.90;;;;;;4967593;28;20108;-60
2023/09/29 00:52:47;;;;;;;3.20;1.08;;;15.40;99.90;;;;;;4967837;28;20550;-60
2023/09/29 00:55:16;;;;;;;10.60;1.60;;;15.40;99.90;;;;;;4968150;28;20050;-60
2023/09/29 00:57:43;;;;;;;7.03;1.37;;;15.30;99.90;;;;;;4967773;28;20047;-60
2023/09/29 01:00:14;;;;;;;5.15;1.55;;;15.30;99.90;;;;;;4969320;28;20125;-60
2023/09/29 01:02:43;;;;;;;4.35;1.63;;;15.30;99.90;;;;;;4949192;28;20399;-60
2023/09/29 01:05:12;;;;;;;5.55;1.80;;;15.30;99.90;;;;;;4948135;29;20044;-61
2023/09/29 01:07:38;;;;;;;7.35;1.48;;;15.30;99.90;;;;;;4948765;28;20789;-60
2023/09/29 01:10:04;;;;;;;4.30;1.27;;;15.40;99.90;;;;;;4948743;28;20047;-60
2023/09/29 01:12:31;;;;;;;4.25;1.30;;;15.40;99.90;;;;;;4947275;28;20043;-61
2023/09/29 01:14:57;;;;;;;5.10;1.20;;;15.40;99.90;;;;;;4932583;29;20047;-60
2023/09/29 01:17:25;;;;;;;4.60;1.13;;;15.40;99.90;;;;;;4964995;28;20047;-61
2023/09/29 01:19:51;;;;;;;4.53;1.17;;;15.40;99.90;;;;;;4967202;28;20085;-60
2023/09/29 01:22:18;;;;;;;8.30;1.25;;;15.50;99.90;;;;;;4967803;28;20085;-61
2023/09/29 01:24:45;;;;;;;4.35;1.23;;;15.50;99.90;;;;;;4967586;28;20081;-60
2023/09/29 01:27:11;;;;;;;4.40;1.30;;;15.50;99.90;;;;;;4967086;28;20112;-61
2023/09/29 01:29:41;;;;;;;10.13;1.88;;;15.50;99.90;;;;;;4967707;28;20126;-60
2023/09/29 01:32:12;;;;;;;5.97;1.20;;;15.50;99.90;;;;;;4968695;28;20054;-61
2023/09/29 01:34:38;;;;;;;2.95;1.00;;;15.50;99.90;;;;;;4968823;28;20130;-60
2023/09/29 01:37:04;;;;;;;6.20;1.02;;;15.50;99.90;;;;;;4968700;28;20039;-61
2023/09/29 01:39:31;;;;;;;3.15;1.25;;;15.60;99.90;;;;;;4966315;28;20129;-60
2023/09/29 01:41:58;;;;;;;4.05;1.60;;;15.60;99.90;;;;;;4966712;28;20055;-61
2023/09/29 01:44:24;;;;;;;7.85;1.58;;;15.60;99.90;;;;;;4968765;28;20062;-60
2023/09/29 01:46:49;;;;;;;4.55;1.05;;;15.60;99.90;;;;;;4967126;28;20043;-61
2023/09/29 01:49:16;;;;;;;4.78;1.33;;;15.60;99.90;;;;;;4968699;28;20489;-60
2023/09/29 01:51:44;;;;;;;6.40;1.00;;;15.60;99.90;;;;;;4968515;28;20078;-60
2023/09/29 01:54:10;;;;;;;1.80;0.77;;;15.60;99.90;;;;;;4967787;28;20361;-60
2023/09/29 01:56:36;;;;;;;4.28;2.35;;;15.70;99.90;;;;;;4967389;28;20085;-60
2023/09/29 01:59:02;;;;;;;6.18;1.20;;;15.70;99.90;;;;;;4967534;28;20078;-60
2023/09/29 02:01:29;;;;;;;2.45;0.68;;;15.70;99.90;;;;;;4958512;28;20062;-60
2023/09/29 02:03:55;;;;;;;5.15;1.88;;;15.80;99.90;;;;;;4947908;28;20518;-60
2023/09/29 02:06:21;;;;;;;3.00;1.30;;;15.80;99.90;;;;;;4949235;28;20039;-60
2023/09/29 02:08:47;;;;;;;7.07;1.60;;;15.90;99.90;;;;;;4948720;28;20043;-60
2023/09/29 02:11:12;;;;;;;5.63;1.23;;;15.90;99.90;;;;;;4949378;28;20538;-60
2023/09/29 02:13:38;;;;;;;3.42;1.05;;;15.90;99.90;;;;;;4964699;28;20050;-60
2023/09/29 02:16:15;;;;;;;3.63;1.60;;;15.90;99.90;;;;;;4966802;28;20509;-60
2023/09/29 02:18:41;;;;;;;4.53;1.83;;;15.90;99.90;;;;;;4951175;28;20395;-60
2023/09/29 02:21:07;;;;;;;8.50;1.40;;;16.00;99.90;;;;;;4966511;28;20050;-61
2023/09/29 02:23:34;;;;;;;3.47;1.33;;;16.00;99.90;;;;;;4968339;28;20047;-62
2023/09/29 02:26:01;;;;;;;4.32;1.33;;;16.00;99.90;;;;;;4971705;28;20556;-60
2023/09/29 02:28:31;;;;;;;3.40;0.70;;;16.10;99.90;;;;;;4969749;28;20035;-60
2023/09/29 02:31:02;;;;;;;1.75;0.75;;;16.10;99.90;;;;;;4971511;28;20107;-60
2023/09/29 02:33:28;;;;;;;2.42;0.90;;;16.10;99.90;;;;;;4971796;28;20043;-60
2023/09/29 02:35:54;;;;;;;4.50;1.52;;;16.20;99.90;;;;;;4968827;28;20047;-60
2023/09/29 02:38:20;;;;;;;3.60;0.80;;;16.20;99.90;;;;;;4969592;28;20510;-61
2023/09/29 02:40:48;;;;;;;3.20;1.08;;;16.20;99.90;;;;;;4971417;28;20043;-62
2023/09/29 02:43:15;;;;;;;5.90;1.13;;;16.20;99.90;;;;;;4968570;28;20712;-61
2023/09/29 02:45:41;;;;;;;1.33;0.90;;;16.20;99.90;;;;;;4969603;28;20047;-61
2023/09/29 02:48:07;;;;;;;2.03;0.93;;;16.30;99.90;;;;;;4954072;28;20050;-61
2023/09/29 02:50:36;;;;;;;3.28;0.82;;;16.30;99.90;;;;;;4969411;28;20661;-61
2023/09/29 02:53:07;;;;;;;3.67;1.23;;;16.30;99.90;;;;;;4970980;28;20042;-60
2023/09/29 02:55:33;;;;;;;2.30;0.82;;;16.20;99.90;;;;;;4969972;28;20291;-61
2023/09/29 02:57:59;;;;;;;4.28;1.10;;;16.20;99.90;;;;;;4969316;28;20049;-61
2023/09/29 03:00:27;;;;;;;3.63;1.63;;;16.20;99.90;;;;;;4970018;28;20049;-61
2023/09/29 03:02:53;;;;;;;2.05;1.13;;;16.20;99.90;;;;;;4950006;28;20656;-63
2023/09/29 03:05:21;;;;;;;5.32;0.95;;;16.20;99.90;;;;;;4951849;28;20383;-61
2023/09/29 03:07:47;;;;;;;4.43;1.15;;;16.20;99.90;;;;;;4950670;28;20055;-63
2023/09/29 03:10:16;;;;;;;6.43;1.50;;;16.20;99.90;;;;;;4951163;28;20049;-62
2023/09/29 03:12:43;;;;;;;2.72;1.60;;;16.20;99.90;;;;;;4951642;28;20039;-60
2023/09/29 03:15:11;;;;;;;5.20;1.45;;;16.20;99.90;;;;;;4950825;28;20050;-60
2023/09/29 03:17:37;;;;;;;3.47;2.15;;;16.20;99.90;;;;;;4949807;28;20515;-61
2023/09/29 03:20:11;;;;;;;1.50;0.90;;;16.20;99.90;;;;;;4957842;28;20039;-61
2023/09/29 03:22:44;;;;;;;6.60;1.63;;;16.30;99.90;;;;;;4969436;28;20054;-61
2023/09/29 03:25:11;;;;;;;6.25;2.00;;;16.30;99.90;;;;;;4969994;28;20046;-64
2023/09/29 03:27:38;;;;;;;3.60;1.52;;;16.30;99.90;;;;;;4969417;28;20118;-61
2023/09/29 03:30:05;;;;;;;2.47;1.50;;;16.30;99.90;;;;;;4969645;28;20451;-61
2023/09/29 03:32:33;;;;;;;4.38;1.45;;;16.30;99.90;;;;;;4969086;28;20047;-61
2023/09/29 03:34:59;;;;;;;7.15;1.45;;;16.30;99.90;;;;;;4948029;28;20049;-61
2023/09/29 03:37:27;;;;;;;3.17;1.20;;;16.40;99.90;;;;;;4950652;28;20126;-60
2023/09/29 03:39:53;;;;;;;6.22;1.00;;;16.40;99.90;;;;;;4950346;28;20416;-61
2023/09/29 03:42:20;;;;;;;6.22;1.35;;;16.40;99.90;;;;;;4949844;28;20507;-60
2023/09/29 03:44:47;;;;;;;3.65;1.10;;;16.40;99.90;;;;;;4949613;28;20309;-61
2023/09/29 03:47:13;;;;;;;2.75;1.50;;;16.50;99.90;;;;;;4950498;28;20097;-60
2023/09/29 03:49:39;;;;;;;4.43;0.95;;;16.50;99.90;;;;;;4950918;28;20043;-61
2023/09/29 03:52:08;;;;;;;3.58;1.35;;;16.50;99.90;;;;;;4933337;29;20043;-61
2023/09/29 03:54:34;;;;;;;;;;;16.50;99.90;;;;;;4966241;28;20077;-61
2023/09/29 03:57:10;;;;;;;5.55;1.50;;;16.50;99.90;;;;;;4970190;28;19964;-61
2023/09/29 03:59:37;;;;;;;2.95;1.30;;;16.50;99.90;;;;;;4952405;28;20486;-61
2023/09/29 04:02:03;;;;;;;1.98;0.82;;;16.60;99.90;;;;;;4939075;28;20039;-61
2023/09/29 04:04:32;;;;;;;5.95;0.85;;;16.60;99.90;;;;;;4953034;28;20046;-61
2023/09/29 04:06:57;;;;;;;4.32;1.48;;;16.50;99.90;;;;;;4968112;28;20051;-61
2023/09/29 04:09:23;;;;;;;5.10;1.27;;;16.50;99.90;;;;;;4968744;28;20050;-61
2023/09/29 04:11:49;;;;;;;5.65;2.08;;;16.60;99.90;;;;;;4968969;28;20043;-61
2023/09/29 04:14:15;;;;;;;2.45;0.85;;;16.60;99.90;;;;;;4969304;28;20377;-60
2023/09/29 04:16:41;;;;;;;5.85;1.60;;;16.60;99.90;;;;;;4968705;28;20051;-60
2023/09/29 04:19:07;;;;;;;4.25;1.20;;;16.60;99.90;;;;;;4969972;28;20042;-60
2023/09/29 04:21:33;;;;;;;5.32;2.05;;;16.60;99.90;;;;;;4967982;28;20038;-61
2023/09/29 04:23:58;;;;;;;3.72;1.48;;;16.50;99.90;;;;;;4968480;28;20050;-61
2023/09/29 04:26:25;;;;;;;5.28;1.60;;;16.50;99.90;;;;;;4968543;28;20491;-60
2023/09/29 04:28:51;;;;;;;7.05;1.45;;;16.60;99.90;;;;;;4969289;28;20438;-62
2023/09/29 04:31:18;;;;;;;4.93;1.17;;;16.50;99.90;;;;;;4968658;28;20066;-60
2023/09/29 04:33:44;;;;;;;3.47;1.52;;;16.50;99.90;;;;;;4968413;28;20078;-60
2023/09/29 04:36:11;;;;;;;2.00;1.05;;;16.50;99.90;;;;;;4968827;28;20058;-62
2023/09/29 04:38:37;;;;;;;8.73;1.08;;;16.60;99.90;;;;;;4969378;28;20116;-61
2023/09/29 04:41:04;;;;;;;5.22;0.98;;;16.60;99.90;;;;;;4967675;28;20105;-61
2023/09/29 04:43:30;;;;;;;6.45;1.65;;;16.60;99.90;;;;;;4968386;28;20047;-61
2023/09/29 04:45:56;;;;;;;3.08;1.58;;;16.60;99.90;;;;;;4969590;28;20041;-61
2023/09/29 04:48:22;;;;;;;2.35;1.13;;;16.60;99.90;;;;;;4966860;28;20046;-61
2023/09/29 04:50:49;;;;;;;4.88;1.27;;;16.60;99.90;;;;;;4968575;28;20047;-61
2023/09/29 04:53:15;;;;;;;10.85;1.25;;;16.60;99.90;;;;;;4951970;28;20122;-60
2023/09/29 04:55:41;;;;;;;2.20;0.95;;;16.60;99.90;;;;;;4968866;28;20569;-61
2023/09/29 04:58:08;;;;;;;4.20;1.33;;;16.60;99.90;;;;;;4967465;28;20047;-62
2023/09/29 05:00:35;;;;;;;3.80;1.65;;;16.60;99.90;;;;;;4967720;28;20051;-61
2023/09/29 05:03:01;;;;;;;6.93;1.50;;;16.50;99.90;;;;;;4968564;28;20089;-60
2023/09/29 05:05:27;;;;;;;2.70;1.38;;;16.60;99.90;;;;;;4951613;28;20491;-61
2023/09/29 05:07:53;;;;;;;2.33;1.42;;;16.60;99.90;;;;;;4968127;28;20046;-62
2023/09/29 05:10:19;;;;;;;5.32;1.55;;;16.60;99.90;;;;;;4968725;28;20047;-62
2023/09/29 05:12:45;;;;;;;3.75;1.27;;;16.50;99.90;;;;;;4967989;28;20054;-63
2023/09/29 05:15:12;;;;;;;4.13;1.48;;;16.60;99.90;;;;;;4967828;28;20054;-61
2023/09/29 05:17:37;;;;;;;7.43;2.00;;;16.60;99.90;;;;;;4967200;28;20054;-60
2023/09/29 05:20:05;;;;;;;3.67;1.77;;;16.60;99.90;;;;;;4951595;28;20054;-60
2023/09/29 05:22:31;;;;;;;5.63;2.03;;;16.60;99.90;;;;;;4967859;28;20051;-61
2023/09/29 05:25:01;;;;;;;5.03;1.27;;;16.60;99.90;;;;;;4967124;28;20047;-61
2023/09/29 05:27:29;;;;;;;9.93;1.40;;;16.60;99.90;;;;;;4963115;28;20032;-61
2023/09/29 05:29:56;;;;;;;1.95;0.80;;;16.60;99.90;;;;;;4948826;28;20043;-61
2023/09/29 05:32:23;;;;;;;3.47;1.52;;;16.70;99.90;;;;;;4932420;29;20050;-61
2023/09/29 05:34:49;;;;;;;3.70;1.40;;;16.70;99.90;;;;;;4948548;29;20039;-61
2023/09/29 05:37:15;;;;;;;4.88;1.27;;;16.60;99.90;;;;;;4947504;29;20505;-61
2023/09/29 05:39:40;;;;;;;2.35;1.20;;;16.70;99.90;;;;;;4947642;29;20149;-60
2023/09/29 05:42:07;;;;;;;3.08;1.30;;;16.70;99.90;;;;;;4964281;28;20395;-61
2023/09/29 05:44:33;;;;;;;2.58;1.48;;;16.70;99.90;;;;;;4947540;29;20051;-60
2023/09/29 05:46:59;;;;;;;6.07;2.05;;;16.70;99.90;;;;;;4948116;28;20039;-60
2023/09/29 05:49:25;;;;;;;5.35;1.52;;;16.60;99.90;;;;;;4948133;28;20043;-61
2023/09/29 05:51:51;;;;;;;2.33;1.33;;;16.60;99.90;;;;;;4948254;28;20097;-60
2023/09/29 05:54:16;;;;;;;3.25;1.75;;;16.70;99.90;;;;;;4962640;28;20038;-60
2023/09/29 05:56:42;;;;;;;3.05;1.48;;;16.60;99.90;;;;;;4967237;28;20076;-62
2023/09/29 05:59:09;;;;;;;2.33;1.08;;;16.60;99.90;;;;;;4960897;28;20054;-61
2023/09/29 06:01:35;;;;;;;6.30;1.58;;;16.70;99.90;;;;;;4961287;28;20053;-61
2023/09/29 06:04:01;;;;;;;3.22;1.75;;;16.70;99.90;;;;;;4971715;28;20047;-60
2023/09/29 06:06:27;;;;;;;2.20;0.80;;;16.70;99.90;;;;;;4969857;28;20077;-60
2023/09/29 06:08:53;;;;;;;1.95;0.73;;;16.70;99.90;;;;;;4970515;28;20100;-61
2023/09/29 06:11:18;;;;;;;5.15;1.75;;;16.80;99.90;;;;;;4970327;28;20061;-60
2023/09/29 06:13:46;;;;;;;2.30;1.48;;;16.80;99.90;;;;;;4971152;28;20031;-60
2023/09/29 06:16:11;;;;;;;4.22;1.55;;;16.80;99.90;;;;;;4970408;28;20475;-60
2023/09/29 06:18:37;;;;;;;2.38;1.25;;;16.80;99.90;;;;;;4971628;28;20035;-60
2023/09/29 06:21:03;;;;;;;3.08;1.45;;;16.90;99.90;;;;;;4969871;28;20459;-60
2023/09/29 06:23:29;;;;;;;6.38;1.13;;;16.90;99.90;;;;;;4968898;28;20043;-60
2023/09/29 06:26:01;;;;;;;2.20;1.13;;;16.90;99.90;;;;;;4952013;28;20047;-61
2023/09/29 06:28:28;;;;;;;2.08;0.95;;;16.80;99.90;;;;;;4952237;28;20069;-60
2023/09/29 06:30:57;;;;;;;1.85;1.10;;;16.80;99.90;;;;;;4952012;28;20435;-60
2023/09/29 06:33:23;;;;;;;2.33;1.30;;;16.80;99.90;;;;;;4950342;28;20043;-61
2023/09/29 06:35:49;;;;;;;1.77;0.82;;;16.80;99.90;;;;;;4951055;29;20058;-60
2023/09/29 06:38:17;;;;;;;4.20;1.42;;;16.80;99.90;;;;;;4934386;29;20070;-60
2023/09/29 06:40:44;;;;;;;4.43;1.50;;;16.80;99.90;;;;;;4949983;29;20051;-60
2023/09/29 06:43:10;;;;;;;2.13;1.40;;;16.80;99.90;;;;;;4952000;28;20048;-60
2023/09/29 06:45:36;;;;;;;3.10;1.33;;;16.90;99.90;;;;;;4952063;28;20043;-60
2023/09/29 06:48:04;;;;;;;3.47;1.35;;;16.90;99.90;;;;;;4934280;29;20185;-60
2023/09/29 06:50:30;;;;;;;4.03;1.63;;;17.00;99.90;;;;;;4950773;28;20054;-60
2023/09/29 06:52:56;;;;;;;5.72;1.70;;;17.00;99.90;;;;;;4953431;28;20051;-60
2023/09/29 06:55:21;;;;;;;3.53;1.75;;;17.10;99.90;;;;;;4968470;28;20125;-61
2023/09/29 06:57:48;;;;;;;3.47;1.70;;;17.10;99.90;;;;;;4969738;28;20042;-60
2023/09/29 07:00:14;;;;;;;3.92;1.63;;;17.20;99.90;;;;;;4969888;28;20479;-60
2023/09/29 07:02:40;;;;;;;3.08;1.58;;;17.30;99.90;;;;;;4970346;28;20035;-61
2023/09/29 07:05:06;;;;;;;2.47;1.65;;;17.30;99.90;;;;;;4969900;28;20058;-60
2023/09/29 07:07:31;;;;;;;2.08;1.42;;;17.30;99.90;;;;;;4953559;28;20467;-61
2023/09/29 07:09:58;;;;;;;5.82;1.35;;;17.40;99.90;;;;;;4968552;28;20093;-61
2023/09/29 07:12:31;;;;;;;3.97;1.90;;;17.40;99.90;;;;;;4968830;28;20043;-61
2023/09/29 07:14:56;;;;;;;2.53;1.38;;;17.50;99.90;;;;;;4953073;28;20042;-60
2023/09/29 07:17:22;;;;;;;3.92;1.65;;;17.40;99.90;;;;;;4969632;28;20050;-60
2023/09/29 07:19:48;;;;;;;2.03;1.13;;;17.50;99.90;;;;;;4969406;28;20035;-60
2023/09/29 07:22:14;;;;;;;2.72;1.23;;;17.60;99.90;;;;;;4970179;28;20035;-61
2023/09/29 07:24:41;;;;;;;6.60;2.38;;;17.60;99.90;;;;;;4953450;28;20070;-61
2023/09/29 07:27:10;;;;;;;5.35;1.60;;;17.70;99.90;;;;;;4970576;28;20471;-60
2023/09/29 07:29:36;;;;;;;4.17;1.40;;;17.80;99.90;;;;;;4970081;28;20043;-61
2023/09/29 07:32:02;;;;;;;4.78;1.70;;;17.90;99.90;;;;;;4970745;28;20262;-60
2023/09/29 07:34:30;;;;;;;3.15;1.48;;;18.00;99.90;;;;;;4969578;28;20495;-59
2023/09/29 07:36:56;;;;;;;4.85;1.20;;;18.10;99.90;;;;;;4968770;28;20050;-61
2023/09/29 07:39:22;;;;;;;3.03;1.73;;;18.20;99.90;;;;;;4970180;28;20057;-61
2023/09/29 07:41:49;;;;;;;1.65;1.17;;;18.20;99.90;;;;;;4970598;28;20038;-61
2023/09/29 07:44:14;;;;;;;2.47;1.40;;;18.30;99.90;;;;;;4968580;28;20122;-61
2023/09/29 07:46:40;;;;;;;1.95;1.08;;;18.40;99.90;;;;;;4969087;28;20085;-63
2023/09/29 07:49:06;;;;;;;2.55;1.25;;;18.60;99.90;;;;;;4969182;28;20099;-61
2023/09/29 07:51:32;;;;;;;3.08;1.55;;;18.60;99.90;;;;;;4968740;28;20567;-61
2023/09/29 07:53:58;;;;;;;3.17;1.42;;;18.70;99.90;;;;;;4969896;28;20046;-61
2023/09/29 07:56:24;;;;;;;2.40;1.30;;;18.80;99.90;;;;;;4970092;28;20453;-61
2023/09/29 07:58:51;;;;;;;2.78;1.25;;;18.80;99.90;;;;;;4967504;28;20053;-61
2023/09/29 08:01:16;;;;;;;4.68;1.92;;;18.90;99.90;;;;;;4970251;28;20426;-60
2023/09/29 08:03:44;;;;;;;2.80;1.15;;;19.00;99.90;;;;;;4968773;28;20043;-61
2023/09/29 08:06:10;;;;;;;2.15;1.10;;;19.10;99.90;;;;;;4968476;28;20050;-61
2023/09/29 08:08:36;;;;;;;1.98;1.08;;;19.20;99.90;;;;;;4968790;28;20096;-61
2023/09/29 08:11:02;;;;;;;3.35;1.23;;;19.30;99.90;;;;;;4969486;28;20121;-62
2023/09/29 08:13:28;;;;;;;1.80;1.13;;;19.40;99.90;;;;;;4952666;28;20107;-62
2023/09/29 08:15:54;;;;;;;2.85;1.35;;;19.50;99.90;;;;;;4970028;28;20042;-61
2023/09/29 08:18:20;;;;;;;5.07;1.30;;;19.60;99.90;;;;;;4968010;28;20069;-62
2023/09/29 08:20:46;;;;;;;2.30;1.23;;;19.70;99.90;;;;;;4969865;28;20047;-62
2023/09/29 08:23:12;;;;;;;4.63;1.50;;;19.80;99.90;;;;;;4952111;28;20047;-63
2023/09/29 08:25:38;;;;;;;1.80;1.05;;;20.00;99.90;;;;;;4968187;28;20052;-62
2023/09/29 08:28:05;;;;;;;4.65;1.40;;;20.10;99.90;;;;;;4952434;28;20039;-63
2023/09/29 08:30:31;;;;;;;2.97;1.45;;;20.20;99.90;;;;;;4968617;28;20046;-62
2023/09/29 08:32:57;;;;;;;7.93;1.55;;;20.20;99.90;;;;;;4969205;28;20093;-62
2023/09/29 08:35:23;;;;;;;3.65;1.77;;;20.20;99.90;;;;;;4968348;28;20043;-62
2023/09/29 08:37:49;;;;;;;3.72;1.63;;;20.30;99.90;;;;;;4969709;28;20047;-62
2023/09/29 08:40:19;;;;;;;5.20;1.67;;;20.40;99.90;;;;;;4967557;28;20062;-61
2023/09/29 08:42:51;;;;;;;8.40;2.08;;;20.40;99.90;;;;;;4967959;28;20490;-61
2023/09/29 08:45:18;;;;;;;4.65;1.58;;;20.40;99.90;;;;;;4969506;28;20050;-61
2023/09/29 08:47:51;;;;;;;3.60;1.95;;;20.30;99.90;;;;;;4948577;28;20094;-61
2023/09/29 08:50:18;;;;;;;5.90;2.03;;;20.20;99.90;;;;;;4959949;28;20067;-61
2023/09/29 08:52:45;;;;;;;4.47;1.60;;;20.10;99.90;;;;;;4969241;28;20043;-61
2023/09/29 08:55:14;;;;;;;5.57;2.22;;;20.10;99.90;;;;;;4967327;28;20478;-61
2023/09/29 08:57:43;;;;;;;;;;;20.20;99.90;;;;;;4968360;28;20047;-61
2023/09/29 09:00:15;;;;;;;4.80;2.00;;;20.20;99.90;;;;;;4950614;28;20386;-62
2023/09/29 09:02:43;;;;;;;4.80;1.95;;;20.20;99.90;;;;;;4968301;28;20427;-61
2023/09/29 09:05:12;;;;;;;7.30;2.70;;;20.20;99.90;;;;;;4968092;28;20039;-61
2023/09/29 09:07:40;;;;;;;4.15;1.70;;;20.10;99.90;;;;;;4968425;28;20493;-62
2023/09/29 09:10:06;;;;;;;9.02;2.08;;;20.10;99.90;;;;;;4967824;28;20057;-61
2023/09/29 09:12:34;;;;;;;5.80;1.77;;;20.10;99.90;;;;;;4962599;28;20128;-61
2023/09/29 09:15:01;;;;;;;7.88;2.35;;;20.10;99.90;;;;;;4949066;28;20387;-61
2023/09/29 09:17:27;;;;;;;5.45;2.58;;;20.10;99.90;;;;;;4948348;28;20514;-61
2023/09/29 09:19:54;;;;;;;4.78;1.70;;;20.20;99.90;;;;;;4948371;29;20047;-61
2023/09/29 09:22:27;;;;;;;3.50;1.45;;;20.30;99.90;;;;;;4947580;29;20052;-61
2023/09/29 09:25:00;;;;;;;2.15;1.67;;;20.30;99.90;;;;;;4948603;28;20070;-61
2023/09/29 09:27:26;;;;;;;3.10;1.58;;;20.30;99.90;;;;;;4948063;28;20043;-61
2023/09/29 09:29:53;;;;;;;7.45;1.83;;;20.40;99.90;;;;;;4947809;29;20065;-61
2023/09/29 09:32:28;;;;;;;4.22;1.60;;;20.40;99.90;;;;;;4952525;28;20046;-61
2023/09/29 09:34:54;;;;;;;4.20;1.35;;;20.40;99.90;;;;;;4969999;28;20066;-61
2023/09/29 09:37:27;;;;;;;2.67;0.93;;;20.40;99.90;;;;;;4972268;28;20074;-61
2023/09/29 09:39:59;;;;;;;3.72;1.10;;;20.40;99.90;;;;;;4972040;28;20126;-61
2023/09/29 09:42:27;;;;;;;3.67;1.23;;;20.50;99.90;;;;;;4971190;28;20449;-62
2023/09/29 09:44:57;;;;;;;2.20;0.98;;;20.40;99.90;;;;;;4970938;28;20353;-61
2023/09/29 09:47:27;;;;;;;7.75;1.75;;;20.40;99.90;;;;;;4970704;28;20101;-61
2023/09/29 09:49:57;;;;;;;2.03;0.80;;;20.30;99.90;;;;;;4971639;28;20118;-61
2023/09/29 09:52:30;;;;;;;2.17;1.17;;;20.30;99.90;;;;;;4954651;28;20043;-61
2023/09/29 09:55:11;;;;;;;2.30;0.95;;;20.30;99.90;;;;;;4970197;28;20051;-62
2023/09/29 09:57:38;;;;;;;5.53;1.70;;;20.30;99.90;;;;;;4971619;28;20487;-61
2023/09/29 10:00:07;;;;;;;2.97;1.30;;;20.30;99.90;;;;;;4970746;28;20039;-62
2023/09/29 10:02:39;;;;;;;4.60;1.48;;;20.30;99.90;;;;;;4971526;28;20494;-62
2023/09/29 10:05:22;;;;;;;3.28;1.52;;;20.40;99.90;;;;;;4970436;28;20487;-61
2023/09/29 10:07:50;;;;;;;3.95;0.95;;;20.40;99.90;;;;;;4970798;28;20037;-61
2023/09/29 10:10:36;;;;;;;3.65;1.17;;;20.40;99.90;;;;;;4968673;28;20039;-62
2023/09/29 10:13:03;;;;;;;3.35;1.45;;;20.40;99.90;;;;;;4970513;28;20051;-61
2023/09/29 10:15:29;;;;;;;3.28;1.23;;;20.40;99.90;;;;;;4970138;28;20125;-62
2023/09/29 10:17:59;;;;;;;3.50;1.25;;;20.40;99.90;;;;;;4970848;28;20065;-62
2023/09/29 10:20:28;;;;;;;1.73;1.15;;;20.40;99.90;;;;;;4971956;28;20104;-62
2023/09/29 10:23:08;;;;;;;3.33;1.52;;;20.50;99.90;;;;;;4971759;28;20126;-62
2023/09/29 10:25:39;;;;;;;2.70;1.13;;;20.50;99.90;;;;;;4970145;28;20105;-61
2023/09/29 10:28:08;;;;;;;3.42;1.35;;;20.50;99.90;;;;;;4970497;28;20035;-62
2023/09/29 10:30:35;;;;;;;2.13;1.00;;;20.50;99.90;;;;;;4971761;28;20038;-62
2023/09/29 10:33:11;;;;;;;2.88;1.08;;;20.60;99.90;;;;;;4969563;28;20058;-62
2023/09/29 10:35:46;;;;;;;2.20;1.20;;;20.70;99.90;;;;;;4970822;28;20045;-62
2023/09/29 10:38:33;;;;;;;3.83;1.10;;;20.70;99.90;;;;;;4969145;28;20108;-62
2023/09/29 10:40:59;;;;;;;2.78;1.05;;;20.70;99.90;;;;;;4970192;28;20502;-62
2023/09/29 10:43:25;;;;;;;2.05;0.90;;;20.60;99.90;;;;;;4953957;28;20043;-62
2023/09/29 10:45:51;;;;;;;2.97;1.40;;;20.50;99.90;;;;;;4969142;28;20043;-62
2023/09/29 10:48:26;;;;;;;2.03;1.13;;;20.50;99.90;;;;;;4970374;28;20082;-62
2023/09/29 10:50:52;;;;;;;3.15;1.15;;;20.40;99.90;;;;;;4970078;28;20049;-62
2023/09/29 10:53:22;;;;;;;3.75;1.60;;;20.40;99.90;;;;;;4970506;28;20050;-62
2023/09/29 10:55:54;;;;;;;2.72;1.10;;;20.40;99.90;;;;;;4970002;28;20524;-62
2023/09/29 10:58:21;;;;;;;4.53;1.20;;;20.40;99.90;;;;;;4954124;28;20475;-62
2023/09/29 11:00:52;;;;;;;4.80;1.20;;;20.50;99.90;;;;;;4969296;28;20486;-62
2023/09/29 11:03:24;;;;;;;4.32;1.52;;;20.60;99.90;;;;;;4969854;28;20042;-62
2023/09/29 11:05:54;;;;;;;2.40;1.25;;;20.80;99.90;;;;;;4957258;28;20108;-62
2023/09/29 11:08:28;;;;;;;3.03;1.70;;;21.00;99.90;;;;;;4950126;28;20043;-62
2023/09/29 11:11:06;;;;;;;4.15;1.52;;;21.10;99.90;;;;;;4950363;28;20079;-62
2023/09/29 11:13:32;;;;;;;2.17;1.20;;;21.10;99.90;;;;;;4951179;28;20388;-62
2023/09/29 11:15:59;;;;;;;2.53;1.50;;;21.10;99.90;;;;;;4950465;28;20479;-62
2023/09/29 11:18:33;;;;;;;4.10;1.90;;;21.20;99.90;;;;;;4950606;29;20050;-62
2023/09/29 11:21:04;;;;;;;2.95;1.35;;;21.20;99.90;;;;;;4949871;29;20043;-62
2023/09/29 11:23:41;;;;;;;4.65;1.52;;;21.30;99.90;;;;;;4950220;29;20079;-62
2023/09/29 11:26:09;;;;;;;2.78;1.60;;;21.30;99.90;;;;;;4950295;29;20043;-62
2023/09/29 11:28:48;;;;;;;2.67;1.23;;;21.40;99.90;;;;;;4949456;28;20122;-62
2023/09/29 11:31:17;;;;;;;2.42;1.50;;;21.40;99.90;;;;;;4951632;28;20039;-62
2023/09/29 11:33:44;;;;;;;1.90;1.33;;;21.40;99.90;;;;;;4951525;28;20117;-62
2023/09/29 11:36:14;;;;;;;2.78;1.48;;;21.30;99.90;;;;;;4950460;28;20533;-62
2023/09/29 11:38:40;;;;;;;2.83;1.35;;;21.20;99.90;;;;;;4969020;28;20093;-62
2023/09/29 11:41:06;;;;;;;3.42;1.40;;;21.20;99.90;;;;;;4968743;28;20054;-62
2023/09/29 11:43:33;;;;;;;6.43;1.45;;;21.10;99.90;;;;;;4969146;28;20130;-62
2023/09/29 11:45:59;;;;;;;3.03;1.60;;;20.90;99.90;;;;;;4969180;28;20050;-62
2023/09/29 11:48:25;;;;;;;2.70;1.30;;;20.80;99.90;;;;;;4969940;28;20039;-62
2023/09/29 11:50:53;;;;;;;2.67;1.67;;;20.60;99.90;;;;;;4969408;28;20039;-62
2023/09/29 11:53:19;;;;;;;4.13;1.40;;;20.40;99.90;;;;;;4969965;28;20043;-62
2023/09/29 11:55:46;;;;;;;4.03;1.83;;;20.30;99.90;;;;;;4968754;28;20058;-62
2023/09/29 11:58:12;;;;;;;3.17;1.38;;;20.20;99.90;;;;;;4951613;28;20050;-61
2023/09/29 12:00:39;;;;;;;2.92;1.70;;;20.10;99.90;;;;;;4968961;28;20039;-61
2023/09/29 12:03:06;;;;;;;5.38;2.28;;;19.90;99.90;;;;;;4949051;28;20055;-61
2023/09/29 12:05:35;;;;;;;5.22;1.95;;;19.80;99.90;;;;;;4950710;28;20137;-61
2023/09/29 12:08:04;;;;;;;2.67;0.98;;;19.60;99.90;;;;;;4950482;28;20039;-61
2023/09/29 12:10:30;;;;;;;0.80;0.30;;;19.50;99.90;;;;;;4967022;28;20545;-61
2023/09/29 12:13:00;;;;;;;1.67;0.30;;;19.20;99.90;;;;;;4969990;28;20757;-61
2023/09/29 12:15:26;;;;;;;0.50;0.30;;;19.00;99.90;;;;;;4968587;28;20478;-60
2023/09/29 12:17:52;;;;;;;0.22;0.13;;;18.80;99.90;;;;;;4948792;28;20043;-61
2023/09/29 12:20:18;;;;;;;0.47;0.35;;;18.60;99.90;;;;;;4950597;28;20057;-61
2023/09/29 12:22:46;;;;;;;0.70;0.20;;;18.40;99.90;;;;;;4965311;28;20411;-61
2023/09/29 12:25:13;;;;;;;1.80;0.80;;;18.30;99.90;;;;;;4964792;28;20075;-60
2023/09/29 12:27:43;;;;;;;0.70;0.60;;;18.20;99.90;;;;;;4965418;28;20062;-61
2023/09/29 12:30:12;;;;;;;0.70;0.30;;;18.10;99.90;;;;;;4966604;28;20459;-61
2023/09/29 12:32:44;;;;;;;0.63;0.22;;;18.10;99.90;;;;;;4933797;29;20551;-61
2023/09/29 12:35:14;;;;;;;0.90;0.40;;;18.00;99.90;;;;;;4950193;28;20391;-61
2023/09/29 12:37:42;;;;;;;0.47;0.35;;;17.90;99.90;;;;;;4966910;28;20119;-61
2023/09/29 12:40:12;;;;;;;1.02;0.30;;;17.90;99.90;;;;;;4967896;28;20055;-61
2023/09/29 12:42:46;;;;;;;1.15;0.28;;;17.90;99.90;;;;;;4967988;28;20066;-61
2023/09/29 12:45:14;;;;;;;1.08;0.30;;;17.90;99.90;;;;;;4967392;28;20104;-61
2023/09/29 12:47:41;;;;;;;0.13;0.10;;;17.90;99.90;;;;;;4967539;28;20046;-60
2023/09/29 12:50:08;;;;;;;1.42;0.20;;;17.90;99.90;;;;;;4968184;28;20054;-61